sensor_id;sensor_type;location;lat;lon;timestamp;temperature;humidity
12013;DHT22;6065;48.138;16.402;2024-03-25T00:01:03;7.60;97.30
12013;DHT22;6065;48.138;16.402;2024-03-25T00:03:29;7.60;97.20
12013;DHT22;6065;48.138;16.402;2024-03-25T00:05:56;7.60;97.20
12013;DHT22;6065;48.138;16.402;2024-03-25T00:08:22;7.60;97.20
12013;DHT22;6065;48.138;16.402;2024-03-25T00:10:50;7.60;97.30
12013;DHT22;6065;48.138;16.402;2024-03-25T00:13:16;7.60;97.10
12013;DHT22;6065;48.138;16.402;2024-03-25T00:15:45;7.60;96.90
12013;DHT22;6065;48.138;16.402;2024-03-25T00:18:11;7.60;96.90
12013;DHT22;6065;48.138;16.402;2024-03-25T00:20:38;7.60;96.80
12013;DHT22;6065;48.138;16.402;2024-03-25T00:23:04;7.60;96.90
12013;DHT22;6065;48.138;16.402;2024-03-25T00:25:31;7.60;96.80
12013;DHT22;6065;48.138;16.402;2024-03-25T00:27:58;7.60;96.80
12013;DHT22;6065;48.138;16.402;2024-03-25T00:30:25;7.60;96.80
12013;DHT22;6065;48.138;16.402;2024-03-25T00:32:50;7.60;96.90
12013;DHT22;6065;48.138;16.402;2024-03-25T00:35:17;7.60;97.00
12013;DHT22;6065;48.138;16.402;2024-03-25T00:37:43;7.50;97.00
12013;DHT22;6065;48.138;16.402;2024-03-25T00:40:11;7.60;97.20
12013;DHT22;6065;48.138;16.402;2024-03-25T00:42:37;7.60;97.20
12013;DHT22;6065;48.138;16.402;2024-03-25T00:45:05;7.60;97.30
12013;DHT22;6065;48.138;16.402;2024-03-25T00:47:32;7.50;97.30
12013;DHT22;6065;48.138;16.402;2024-03-25T00:49:59;7.60;97.40
12013;DHT22;6065;48.138;16.402;2024-03-25T00:52:25;7.60;97.50
12013;DHT22;6065;48.138;16.402;2024-03-25T00:54:51;7.60;97.50
12013;DHT22;6065;48.138;16.402;2024-03-25T00:57:17;7.60;97.90
12013;DHT22;6065;48.138;16.402;2024-03-25T00:59:44;7.60;97.70
12013;DHT22;6065;48.138;16.402;2024-03-25T01:02:11;7.60;97.80
12013;DHT22;6065;48.138;16.402;2024-03-25T01:04:38;7.60;97.70
12013;DHT22;6065;48.138;16.402;2024-03-25T01:07:04;7.60;97.80
12013;DHT22;6065;48.138;16.402;2024-03-25T01:09:31;7.50;97.80
12013;DHT22;6065;48.138;16.402;2024-03-25T01:11:57;7.50;97.90
12013;DHT22;6065;48.138;16.402;2024-03-25T01:14:24;7.50;97.90
12013;DHT22;6065;48.138;16.402;2024-03-25T01:16:49;7.50;98.10
12013;DHT22;6065;48.138;16.402;2024-03-25T01:19:18;7.50;98.20
12013;DHT22;6065;48.138;16.402;2024-03-25T01:21:43;7.50;98.10
12013;DHT22;6065;48.138;16.402;2024-03-25T01:24:10;7.50;98.20
12013;DHT22;6065;48.138;16.402;2024-03-25T01:26:36;7.50;98.20
12013;DHT22;6065;48.138;16.402;2024-03-25T01:29:03;7.50;98.20
12013;DHT22;6065;48.138;16.402;2024-03-25T01:31:28;7.50;98.20
12013;DHT22;6065;48.138;16.402;2024-03-25T01:33:55;7.50;98.10
12013;DHT22;6065;48.138;16.402;2024-03-25T01:36:22;7.50;98.10
12013;DHT22;6065;48.138;16.402;2024-03-25T01:38:51;7.50;98.10
12013;DHT22;6065;48.138;16.402;2024-03-25T01:41:19;7.50;98.10
12013;DHT22;6065;48.138;16.402;2024-03-25T01:43:48;7.50;98.10
12013;DHT22;6065;48.138;16.402;2024-03-25T01:46:14;7.50;98.00
12013;DHT22;6065;48.138;16.402;2024-03-25T01:48:41;7.50;98.00
12013;DHT22;6065;48.138;16.402;2024-03-25T01:51:07;7.40;98.10
12013;DHT22;6065;48.138;16.402;2024-03-25T01:53:35;7.50;98.20
12013;DHT22;6065;48.138;16.402;2024-03-25T01:56:01;7.50;98.20
12013;DHT22;6065;48.138;16.402;2024-03-25T01:58:29;7.50;98.20
12013;DHT22;6065;48.138;16.402;2024-03-25T02:00:56;7.50;98.10
12013;DHT22;6065;48.138;16.402;2024-03-25T02:03:24;7.50;98.00
12013;DHT22;6065;48.138;16.402;2024-03-25T02:05:50;7.40;98.00
12013;DHT22;6065;48.138;16.402;2024-03-25T02:08:19;7.40;98.00
12013;DHT22;6065;48.138;16.402;2024-03-25T02:10:46;7.40;98.10
12013;DHT22;6065;48.138;16.402;2024-03-25T02:13:14;7.50;98.00
12013;DHT22;6065;48.138;16.402;2024-03-25T02:15:40;7.40;98.10
12013;DHT22;6065;48.138;16.402;2024-03-25T02:18:07;7.40;98.20
12013;DHT22;6065;48.138;16.402;2024-03-25T02:20:33;7.40;98.30
12013;DHT22;6065;48.138;16.402;2024-03-25T02:22:59;7.40;98.30
12013;DHT22;6065;48.138;16.402;2024-03-25T02:25:25;7.40;98.40
12013;DHT22;6065;48.138;16.402;2024-03-25T02:27:53;7.40;98.30
12013;DHT22;6065;48.138;16.402;2024-03-25T02:30:19;7.40;98.40
12013;DHT22;6065;48.138;16.402;2024-03-25T02:32:46;7.40;98.50
12013;DHT22;6065;48.138;16.402;2024-03-25T02:35:13;7.40;98.50
12013;DHT22;6065;48.138;16.402;2024-03-25T02:37:40;7.40;98.50
12013;DHT22;6065;48.138;16.402;2024-03-25T02:40:07;7.40;98.50
12013;DHT22;6065;48.138;16.402;2024-03-25T02:42:35;7.30;98.50
12013;DHT22;6065;48.138;16.402;2024-03-25T02:45:03;7.30;98.40
12013;DHT22;6065;48.138;16.402;2024-03-25T02:47:30;7.30;98.50
12013;DHT22;6065;48.138;16.402;2024-03-25T02:49:56;7.30;98.60
12013;DHT22;6065;48.138;16.402;2024-03-25T02:52:23;7.20;98.70
12013;DHT22;6065;48.138;16.402;2024-03-25T02:54:49;7.30;98.70
12013;DHT22;6065;48.138;16.402;2024-03-25T02:57:16;7.30;98.70
12013;DHT22;6065;48.138;16.402;2024-03-25T02:59:42;7.20;98.80
12013;DHT22;6065;48.138;16.402;2024-03-25T03:02:10;7.20;99.00
12013;DHT22;6065;48.138;16.402;2024-03-25T03:04:36;7.10;99.00
12013;DHT22;6065;48.138;16.402;2024-03-25T03:07:03;7.10;99.10
12013;DHT22;6065;48.138;16.402;2024-03-25T03:09:29;7.10;99.30
12013;DHT22;6065;48.138;16.402;2024-03-25T03:11:56;7.00;99.30
12013;DHT22;6065;48.138;16.402;2024-03-25T03:14:22;7.00;99.40
12013;DHT22;6065;48.138;16.402;2024-03-25T03:16:49;7.00;99.50
12013;DHT22;6065;48.138;16.402;2024-03-25T03:19:16;7.00;99.60
12013;DHT22;6065;48.138;16.402;2024-03-25T03:21:43;7.00;99.60
12013;DHT22;6065;48.138;16.402;2024-03-25T03:24:08;7.00;99.60
12013;DHT22;6065;48.138;16.402;2024-03-25T03:26:35;7.00;99.70
12013;DHT22;6065;48.138;16.402;2024-03-25T03:29:01;7.00;99.70
12013;DHT22;6065;48.138;16.402;2024-03-25T03:31:28;7.00;99.70
12013;DHT22;6065;48.138;16.402;2024-03-25T03:33:54;7.00;99.60
12013;DHT22;6065;48.138;16.402;2024-03-25T03:36:22;7.00;99.60
12013;DHT22;6065;48.138;16.402;2024-03-25T03:38:49;7.00;99.90
12013;DHT22;6065;48.138;16.402;2024-03-25T03:41:16;7.00;99.50
12013;DHT22;6065;48.138;16.402;2024-03-25T03:43:42;7.00;99.40
12013;DHT22;6065;48.138;16.402;2024-03-25T03:46:09;7.00;99.30
12013;DHT22;6065;48.138;16.402;2024-03-25T03:48:35;7.00;99.20
12013;DHT22;6065;48.138;16.402;2024-03-25T03:51:03;7.00;99.30
12013;DHT22;6065;48.138;16.402;2024-03-25T03:53:31;7.00;99.20
12013;DHT22;6065;48.138;16.402;2024-03-25T03:55:59;7.00;99.10
12013;DHT22;6065;48.138;16.402;2024-03-25T03:58:25;7.10;99.10
12013;DHT22;6065;48.138;16.402;2024-03-25T04:00:56;7.00;99.00
12013;DHT22;6065;48.138;16.402;2024-03-25T04:03:21;7.00;98.90
12013;DHT22;6065;48.138;16.402;2024-03-25T04:05:48;7.00;99.00
12013;DHT22;6065;48.138;16.402;2024-03-25T04:08:14;7.00;98.90
12013;DHT22;6065;48.138;16.402;2024-03-25T04:10:43;7.00;98.80
12013;DHT22;6065;48.138;16.402;2024-03-25T04:13:09;7.00;98.80
12013;DHT22;6065;48.138;16.402;2024-03-25T04:15:36;7.00;98.80
12013;DHT22;6065;48.138;16.402;2024-03-25T04:18:02;7.00;98.80
12013;DHT22;6065;48.138;16.402;2024-03-25T04:20:29;6.90;98.80
12013;DHT22;6065;48.138;16.402;2024-03-25T04:22:55;7.00;98.80
12013;DHT22;6065;48.138;16.402;2024-03-25T04:25:22;7.00;98.80
12013;DHT22;6065;48.138;16.402;2024-03-25T04:27:49;7.00;98.80
12013;DHT22;6065;48.138;16.402;2024-03-25T04:30:16;7.00;98.80
12013;DHT22;6065;48.138;16.402;2024-03-25T04:32:42;7.00;98.70
12013;DHT22;6065;48.138;16.402;2024-03-25T04:35:09;7.00;98.80
12013;DHT22;6065;48.138;16.402;2024-03-25T04:37:35;7.00;98.70
12013;DHT22;6065;48.138;16.402;2024-03-25T04:40:01;7.00;98.70
12013;DHT22;6065;48.138;16.402;2024-03-25T04:42:26;7.10;98.60
12013;DHT22;6065;48.138;16.402;2024-03-25T04:44:54;7.10;98.50
12013;DHT22;6065;48.138;16.402;2024-03-25T04:47:20;7.10;98.60
12013;DHT22;6065;48.138;16.402;2024-03-25T04:49:46;7.10;98.60
12013;DHT22;6065;48.138;16.402;2024-03-25T04:52:12;7.10;98.60
12013;DHT22;6065;48.138;16.402;2024-03-25T04:54:38;7.10;98.70
12013;DHT22;6065;48.138;16.402;2024-03-25T04:57:04;7.10;98.70
12013;DHT22;6065;48.138;16.402;2024-03-25T04:59:30;7.00;98.80
12013;DHT22;6065;48.138;16.402;2024-03-25T05:01:57;7.10;98.90
12013;DHT22;6065;48.138;16.402;2024-03-25T05:04:23;7.10;98.90
12013;DHT22;6065;48.138;16.402;2024-03-25T05:06:49;7.10;98.90
12013;DHT22;6065;48.138;16.402;2024-03-25T05:09:14;7.10;98.80
12013;DHT22;6065;48.138;16.402;2024-03-25T05:11:40;7.10;98.80
12013;DHT22;6065;48.138;16.402;2024-03-25T05:14:06;7.10;98.90
12013;DHT22;6065;48.138;16.402;2024-03-25T05:16:32;7.10;98.90
12013;DHT22;6065;48.138;16.402;2024-03-25T05:18:59;7.10;99.20
12013;DHT22;6065;48.138;16.402;2024-03-25T05:21:25;7.10;99.00
12013;DHT22;6065;48.138;16.402;2024-03-25T05:23:51;7.10;99.00
12013;DHT22;6065;48.138;16.402;2024-03-25T05:26:17;7.10;99.00
12013;DHT22;6065;48.138;16.402;2024-03-25T05:28:43;7.10;99.00
12013;DHT22;6065;48.138;16.402;2024-03-25T05:31:09;7.10;99.00
12013;DHT22;6065;48.138;16.402;2024-03-25T05:33:34;7.10;99.10
12013;DHT22;6065;48.138;16.402;2024-03-25T05:36:02;7.10;99.10
12013;DHT22;6065;48.138;16.402;2024-03-25T05:38:27;7.10;99.00
12013;DHT22;6065;48.138;16.402;2024-03-25T05:40:53;7.10;99.10
12013;DHT22;6065;48.138;16.402;2024-03-25T05:43:19;7.20;99.10
12013;DHT22;6065;48.138;16.402;2024-03-25T05:45:50;7.20;98.90
12013;DHT22;6065;48.138;16.402;2024-03-25T05:48:15;7.20;98.90
12013;DHT22;6065;48.138;16.402;2024-03-25T05:50:41;7.20;98.90
12013;DHT22;6065;48.138;16.402;2024-03-25T05:53:08;7.30;98.80
12013;DHT22;6065;48.138;16.402;2024-03-25T05:55:35;7.30;98.70
12013;DHT22;6065;48.138;16.402;2024-03-25T05:58:00;7.30;98.60
12013;DHT22;6065;48.138;16.402;2024-03-25T06:00:27;7.30;98.60
12013;DHT22;6065;48.138;16.402;2024-03-25T06:02:52;7.30;98.60
12013;DHT22;6065;48.138;16.402;2024-03-25T06:05:18;7.30;98.30
12013;DHT22;6065;48.138;16.402;2024-03-25T06:07:44;7.40;98.30
12013;DHT22;6065;48.138;16.402;2024-03-25T06:10:11;7.40;98.40
12013;DHT22;6065;48.138;16.402;2024-03-25T06:12:37;7.40;98.40
12013;DHT22;6065;48.138;16.402;2024-03-25T06:15:03;7.40;98.40
12013;DHT22;6065;48.138;16.402;2024-03-25T06:17:29;7.40;98.30
12013;DHT22;6065;48.138;16.402;2024-03-25T06:19:55;7.40;98.30
12013;DHT22;6065;48.138;16.402;2024-03-25T06:22:20;7.50;98.40
12013;DHT22;6065;48.138;16.402;2024-03-25T06:24:46;7.40;98.40
12013;DHT22;6065;48.138;16.402;2024-03-25T06:27:14;7.50;98.30
12013;DHT22;6065;48.138;16.402;2024-03-25T06:29:40;7.50;98.20
12013;DHT22;6065;48.138;16.402;2024-03-25T06:32:05;7.50;98.20
12013;DHT22;6065;48.138;16.402;2024-03-25T06:34:50;7.60;98.20
12013;DHT22;6065;48.138;16.402;2024-03-25T06:37:16;7.60;98.10
12013;DHT22;6065;48.138;16.402;2024-03-25T06:39:41;7.60;97.80
12013;DHT22;6065;48.138;16.402;2024-03-25T06:42:07;7.60;97.70
12013;DHT22;6065;48.138;16.402;2024-03-25T06:44:34;7.70;97.60
12013;DHT22;6065;48.138;16.402;2024-03-25T06:47:00;7.70;97.50
12013;DHT22;6065;48.138;16.402;2024-03-25T06:49:26;7.70;97.50
12013;DHT22;6065;48.138;16.402;2024-03-25T06:51:52;7.80;97.30
12013;DHT22;6065;48.138;16.402;2024-03-25T06:54:17;7.80;97.40
12013;DHT22;6065;48.138;16.402;2024-03-25T06:56:43;7.90;97.40
12013;DHT22;6065;48.138;16.402;2024-03-25T06:59:09;7.90;97.40
12013;DHT22;6065;48.138;16.402;2024-03-25T07:01:36;7.90;97.40
12013;DHT22;6065;48.138;16.402;2024-03-25T07:04:02;8.00;97.30
12013;DHT22;6065;48.138;16.402;2024-03-25T07:06:28;8.00;97.20
12013;DHT22;6065;48.138;16.402;2024-03-25T07:08:54;8.00;96.90
12013;DHT22;6065;48.138;16.402;2024-03-25T07:11:19;8.10;96.90
12013;DHT22;6065;48.138;16.402;2024-03-25T07:13:45;8.10;97.00
12013;DHT22;6065;48.138;16.402;2024-03-25T07:16:11;8.10;97.00
12013;DHT22;6065;48.138;16.402;2024-03-25T07:18:38;8.20;96.80
12013;DHT22;6065;48.138;16.402;2024-03-25T07:21:04;8.30;96.60
12013;DHT22;6065;48.138;16.402;2024-03-25T07:23:30;8.30;96.60
12013;DHT22;6065;48.138;16.402;2024-03-25T07:25:56;8.40;96.30
12013;DHT22;6065;48.138;16.402;2024-03-25T07:28:21;8.50;96.10
12013;DHT22;6065;48.138;16.402;2024-03-25T07:30:49;8.50;96.00
12013;DHT22;6065;48.138;16.402;2024-03-25T07:33:15;8.50;96.00
12013;DHT22;6065;48.138;16.402;2024-03-25T07:35:42;8.60;96.00
12013;DHT22;6065;48.138;16.402;2024-03-25T07:38:08;8.70;96.10
12013;DHT22;6065;48.138;16.402;2024-03-25T07:40:33;8.70;95.60
12013;DHT22;6065;48.138;16.402;2024-03-25T07:42:59;8.80;95.20
12013;DHT22;6065;48.138;16.402;2024-03-25T07:45:25;8.90;95.20
12013;DHT22;6065;48.138;16.402;2024-03-25T07:47:51;8.90;95.30
12013;DHT22;6065;48.138;16.402;2024-03-25T07:50:17;9.00;95.20
12013;DHT22;6065;48.138;16.402;2024-03-25T07:52:44;9.10;94.70
12013;DHT22;6065;48.138;16.402;2024-03-25T07:55:10;9.20;94.90
12013;DHT22;6065;48.138;16.402;2024-03-25T07:57:35;9.30;94.80
12013;DHT22;6065;48.138;16.402;2024-03-25T08:00:02;9.30;94.60
12013;DHT22;6065;48.138;16.402;2024-03-25T08:02:28;9.40;94.80
12013;DHT22;6065;48.138;16.402;2024-03-25T08:04:54;9.50;94.60
12013;DHT22;6065;48.138;16.402;2024-03-25T08:07:20;9.50;94.70
12013;DHT22;6065;48.138;16.402;2024-03-25T08:09:47;9.50;94.50
12013;DHT22;6065;48.138;16.402;2024-03-25T08:12:13;9.60;94.70
12013;DHT22;6065;48.138;16.402;2024-03-25T08:14:39;9.60;94.60
12013;DHT22;6065;48.138;16.402;2024-03-25T08:17:04;9.60;94.40
12013;DHT22;6065;48.138;16.402;2024-03-25T08:19:30;9.70;94.60
12013;DHT22;6065;48.138;16.402;2024-03-25T08:21:56;9.80;94.30
12013;DHT22;6065;48.138;16.402;2024-03-25T08:24:22;9.80;94.00
12013;DHT22;6065;48.138;16.402;2024-03-25T08:26:49;9.90;93.80
12013;DHT22;6065;48.138;16.402;2024-03-25T08:29:15;9.90;93.60
12013;DHT22;6065;48.138;16.402;2024-03-25T08:31:41;9.90;93.20
12013;DHT22;6065;48.138;16.402;2024-03-25T08:34:07;9.90;93.30
12013;DHT22;6065;48.138;16.402;2024-03-25T08:36:32;9.90;93.40
12013;DHT22;6065;48.138;16.402;2024-03-25T08:38:58;10.00;93.10
12013;DHT22;6065;48.138;16.402;2024-03-25T08:41:24;10.00;93.00
12013;DHT22;6065;48.138;16.402;2024-03-25T08:43:51;10.00;93.10
12013;DHT22;6065;48.138;16.402;2024-03-25T08:46:17;10.00;92.80
12013;DHT22;6065;48.138;16.402;2024-03-25T08:48:43;10.00;92.60
12013;DHT22;6065;48.138;16.402;2024-03-25T08:51:08;10.10;92.50
12013;DHT22;6065;48.138;16.402;2024-03-25T08:53:34;10.10;92.90
12013;DHT22;6065;48.138;16.402;2024-03-25T08:56:00;10.20;93.10
12013;DHT22;6065;48.138;16.402;2024-03-25T08:58:26;10.30;92.70
12013;DHT22;6065;48.138;16.402;2024-03-25T09:00:53;10.30;92.70
12013;DHT22;6065;48.138;16.402;2024-03-25T09:03:19;10.30;92.30
12013;DHT22;6065;48.138;16.402;2024-03-25T09:05:44;10.30;92.20
12013;DHT22;6065;48.138;16.402;2024-03-25T09:08:10;10.30;92.00
12013;DHT22;6065;48.138;16.402;2024-03-25T09:10:36;10.30;91.40
12013;DHT22;6065;48.138;16.402;2024-03-25T09:13:20;10.30;91.40
12013;DHT22;6065;48.138;16.402;2024-03-25T09:15:46;10.40;91.20
12013;DHT22;6065;48.138;16.402;2024-03-25T09:18:13;10.40;91.30
12013;DHT22;6065;48.138;16.402;2024-03-25T09:20:39;10.40;91.40
12013;DHT22;6065;48.138;16.402;2024-03-25T09:23:05;10.50;91.50
12013;DHT22;6065;48.138;16.402;2024-03-25T09:25:31;10.60;91.40
12013;DHT22;6065;48.138;16.402;2024-03-25T09:27:57;10.70;90.90
12013;DHT22;6065;48.138;16.402;2024-03-25T09:30:22;10.80;90.80
12013;DHT22;6065;48.138;16.402;2024-03-25T09:32:48;10.80;90.80
12013;DHT22;6065;48.138;16.402;2024-03-25T09:35:15;10.90;90.80
12013;DHT22;6065;48.138;16.402;2024-03-25T09:37:41;11.00;91.00
12013;DHT22;6065;48.138;16.402;2024-03-25T09:40:07;11.10;90.70
12013;DHT22;6065;48.138;16.402;2024-03-25T09:42:33;11.10;90.20
12013;DHT22;6065;48.138;16.402;2024-03-25T09:44:59;11.10;90.30
12013;DHT22;6065;48.138;16.402;2024-03-25T09:47:25;11.20;89.90
12013;DHT22;6065;48.138;16.402;2024-03-25T09:49:52;11.20;90.20
12013;DHT22;6065;48.138;16.402;2024-03-25T09:52:21;11.20;90.30
12013;DHT22;6065;48.138;16.402;2024-03-25T09:54:47;11.20;90.30
12013;DHT22;6065;48.138;16.402;2024-03-25T09:57:12;11.30;89.70
12013;DHT22;6065;48.138;16.402;2024-03-25T09:59:39;11.30;90.20
12013;DHT22;6065;48.138;16.402;2024-03-25T10:02:05;11.40;90.50
12013;DHT22;6065;48.138;16.402;2024-03-25T10:04:32;11.40;90.10
12013;DHT22;6065;48.138;16.402;2024-03-25T10:06:58;11.50;90.10
12013;DHT22;6065;48.138;16.402;2024-03-25T10:09:25;11.50;90.20
12013;DHT22;6065;48.138;16.402;2024-03-25T10:11:51;11.50;88.90
12013;DHT22;6065;48.138;16.402;2024-03-25T10:14:17;11.50;88.60
12013;DHT22;6065;48.138;16.402;2024-03-25T10:16:43;11.60;88.30
12013;DHT22;6065;48.138;16.402;2024-03-25T10:19:09;11.70;88.70
12013;DHT22;6065;48.138;16.402;2024-03-25T10:21:35;11.70;87.50
12013;DHT22;6065;48.138;16.402;2024-03-25T10:24:01;11.70;88.00
12013;DHT22;6065;48.138;16.402;2024-03-25T10:26:28;11.80;88.60
12013;DHT22;6065;48.138;16.402;2024-03-25T10:29:01;11.70;85.90
12013;DHT22;6065;48.138;16.402;2024-03-25T10:31:27;11.70;85.90
12013;DHT22;6065;48.138;16.402;2024-03-25T10:33:53;11.70;85.60
12013;DHT22;6065;48.138;16.402;2024-03-25T10:36:19;11.80;86.70
12013;DHT22;6065;48.138;16.402;2024-03-25T10:38:46;11.90;87.10
12013;DHT22;6065;48.138;16.402;2024-03-25T10:41:13;11.90;86.30
12013;DHT22;6065;48.138;16.402;2024-03-25T10:43:43;12.00;87.30
12013;DHT22;6065;48.138;16.402;2024-03-25T10:46:09;12.00;87.60
12013;DHT22;6065;48.138;16.402;2024-03-25T10:48:35;12.10;87.90
12013;DHT22;6065;48.138;16.402;2024-03-25T10:51:03;12.10;88.20
12013;DHT22;6065;48.138;16.402;2024-03-25T10:53:29;12.20;87.50
12013;DHT22;6065;48.138;16.402;2024-03-25T10:55:55;12.30;86.10
12013;DHT22;6065;48.138;16.402;2024-03-25T10:58:22;12.30;84.80
12013;DHT22;6065;48.138;16.402;2024-03-25T11:00:50;12.30;85.20
12013;DHT22;6065;48.138;16.402;2024-03-25T11:03:16;12.30;84.60
12013;DHT22;6065;48.138;16.402;2024-03-25T11:05:42;12.30;83.90
12013;DHT22;6065;48.138;16.402;2024-03-25T11:08:11;12.20;81.20
12013;DHT22;6065;48.138;16.402;2024-03-25T11:10:39;12.10;81.10
12013;DHT22;6065;48.138;16.402;2024-03-25T11:13:09;12.00;82.20
12013;DHT22;6065;48.138;16.402;2024-03-25T11:15:35;11.90;82.40
12013;DHT22;6065;48.138;16.402;2024-03-25T11:18:03;11.70;81.30
12013;DHT22;6065;48.138;16.402;2024-03-25T11:20:29;11.70;81.40
12013;DHT22;6065;48.138;16.402;2024-03-25T11:22:54;11.70;82.00
12013;DHT22;6065;48.138;16.402;2024-03-25T11:25:20;11.80;81.50
12013;DHT22;6065;48.138;16.402;2024-03-25T11:27:47;11.90;81.70
12013;DHT22;6065;48.138;16.402;2024-03-25T11:30:13;12.00;82.40
12013;DHT22;6065;48.138;16.402;2024-03-25T11:32:45;12.10;83.50
12013;DHT22;6065;48.138;16.402;2024-03-25T11:35:13;12.20;84.20
12013;DHT22;6065;48.138;16.402;2024-03-25T11:37:42;12.30;84.60
12013;DHT22;6065;48.138;16.402;2024-03-25T11:40:08;12.30;83.40
12013;DHT22;6065;48.138;16.402;2024-03-25T11:42:34;12.40;83.90
12013;DHT22;6065;48.138;16.402;2024-03-25T11:45:00;12.50;83.20
12013;DHT22;6065;48.138;16.402;2024-03-25T11:47:26;12.70;83.30
12013;DHT22;6065;48.138;16.402;2024-03-25T11:49:52;12.80;83.00
12013;DHT22;6065;48.138;16.402;2024-03-25T11:52:19;12.80;83.30
12013;DHT22;6065;48.138;16.402;2024-03-25T11:54:46;12.80;81.20
12013;DHT22;6065;48.138;16.402;2024-03-25T11:57:18;12.70;81.50
12013;DHT22;6065;48.138;16.402;2024-03-25T11:59:44;12.60;82.10
12013;DHT22;6065;48.138;16.402;2024-03-25T12:02:10;12.60;83.00
12013;DHT22;6065;48.138;16.402;2024-03-25T12:04:36;12.50;82.80
12013;DHT22;6065;48.138;16.402;2024-03-25T12:07:02;12.50;82.30
12013;DHT22;6065;48.138;16.402;2024-03-25T12:09:29;12.50;83.40
12013;DHT22;6065;48.138;16.402;2024-03-25T12:12:14;12.50;83.10
12013;DHT22;6065;48.138;16.402;2024-03-25T12:14:40;12.50;81.20
12013;DHT22;6065;48.138;16.402;2024-03-25T12:17:05;12.50;80.50
12013;DHT22;6065;48.138;16.402;2024-03-25T12:19:31;12.50;81.40
12013;DHT22;6065;48.138;16.402;2024-03-25T12:22:00;12.50;80.80
12013;DHT22;6065;48.138;16.402;2024-03-25T12:24:26;12.50;81.40
12013;DHT22;6065;48.138;16.402;2024-03-25T12:26:53;12.60;81.50
12013;DHT22;6065;48.138;16.402;2024-03-25T12:29:19;12.50;80.50
12013;DHT22;6065;48.138;16.402;2024-03-25T12:31:53;12.50;81.10
12013;DHT22;6065;48.138;16.402;2024-03-25T12:34:19;12.50;81.60
12013;DHT22;6065;48.138;16.402;2024-03-25T12:36:45;12.50;81.30
12013;DHT22;6065;48.138;16.402;2024-03-25T12:39:15;12.40;81.10
12013;DHT22;6065;48.138;16.402;2024-03-25T12:41:41;12.40;82.00
12013;DHT22;6065;48.138;16.402;2024-03-25T12:44:08;12.40;81.60
12013;DHT22;6065;48.138;16.402;2024-03-25T12:46:34;12.30;82.10
12013;DHT22;6065;48.138;16.402;2024-03-25T12:49:00;12.40;82.00
12013;DHT22;6065;48.138;16.402;2024-03-25T12:51:26;12.60;82.90
12013;DHT22;6065;48.138;16.402;2024-03-25T12:53:51;12.70;82.10
12013;DHT22;6065;48.138;16.402;2024-03-25T12:56:17;12.70;82.20
12013;DHT22;6065;48.138;16.402;2024-03-25T12:58:43;12.80;81.20
12013;DHT22;6065;48.138;16.402;2024-03-25T13:01:10;12.90;82.30
12013;DHT22;6065;48.138;16.402;2024-03-25T13:03:36;13.00;83.00
12013;DHT22;6065;48.138;16.402;2024-03-25T13:06:02;13.20;82.20
12013;DHT22;6065;48.138;16.402;2024-03-25T13:08:28;13.20;81.60
12013;DHT22;6065;48.138;16.402;2024-03-25T13:10:53;13.40;82.20
12013;DHT22;6065;48.138;16.402;2024-03-25T13:13:19;13.50;81.70
12013;DHT22;6065;48.138;16.402;2024-03-25T13:15:45;13.60;80.50
12013;DHT22;6065;48.138;16.402;2024-03-25T13:18:12;13.60;80.70
12013;DHT22;6065;48.138;16.402;2024-03-25T13:20:38;13.70;80.90
12013;DHT22;6065;48.138;16.402;2024-03-25T13:23:04;13.70;77.50
12013;DHT22;6065;48.138;16.402;2024-03-25T13:25:30;13.70;78.30
12013;DHT22;6065;48.138;16.402;2024-03-25T13:27:55;13.70;79.40
12013;DHT22;6065;48.138;16.402;2024-03-25T13:30:21;13.70;79.00
12013;DHT22;6065;48.138;16.402;2024-03-25T13:32:47;13.60;80.40
12013;DHT22;6065;48.138;16.402;2024-03-25T13:35:14;13.50;79.40
12013;DHT22;6065;48.138;16.402;2024-03-25T13:37:40;13.50;79.20
12013;DHT22;6065;48.138;16.402;2024-03-25T13:40:06;13.60;77.30
12013;DHT22;6065;48.138;16.402;2024-03-25T13:42:33;13.70;76.50
12013;DHT22;6065;48.138;16.402;2024-03-25T13:44:58;13.70;77.60
12013;DHT22;6065;48.138;16.402;2024-03-25T13:47:24;13.80;76.90
12013;DHT22;6065;48.138;16.402;2024-03-25T13:49:56;13.80;77.30
12013;DHT22;6065;48.138;16.402;2024-03-25T13:52:26;13.70;78.70
12013;DHT22;6065;48.138;16.402;2024-03-25T13:54:52;13.70;79.90
12013;DHT22;6065;48.138;16.402;2024-03-25T13:57:18;13.60;79.40
12013;DHT22;6065;48.138;16.402;2024-03-25T13:59:44;13.50;79.30
12013;DHT22;6065;48.138;16.402;2024-03-25T14:02:09;13.40;78.80
12013;DHT22;6065;48.138;16.402;2024-03-25T14:04:35;13.40;79.60
12013;DHT22;6065;48.138;16.402;2024-03-25T14:07:01;13.50;80.30
12013;DHT22;6065;48.138;16.402;2024-03-25T14:09:28;13.50;80.60
12013;DHT22;6065;48.138;16.402;2024-03-25T14:11:54;13.60;81.40
12013;DHT22;6065;48.138;16.402;2024-03-25T14:14:20;13.60;78.30
12013;DHT22;6065;48.138;16.402;2024-03-25T14:16:46;13.60;77.40
12013;DHT22;6065;48.138;16.402;2024-03-25T14:19:11;13.60;77.30
12013;DHT22;6065;48.138;16.402;2024-03-25T14:21:37;13.70;77.20
12013;DHT22;6065;48.138;16.402;2024-03-25T14:24:04;13.70;77.00
12013;DHT22;6065;48.138;16.402;2024-03-25T14:26:31;13.60;75.50
12013;DHT22;6065;48.138;16.402;2024-03-25T14:28:57;13.50;75.70
12013;DHT22;6065;48.138;16.402;2024-03-25T14:31:23;13.50;76.10
12013;DHT22;6065;48.138;16.402;2024-03-25T14:33:49;13.50;76.70
12013;DHT22;6065;48.138;16.402;2024-03-25T14:36:14;13.50;77.40
12013;DHT22;6065;48.138;16.402;2024-03-25T14:38:40;13.60;78.40
12013;DHT22;6065;48.138;16.402;2024-03-25T14:41:06;13.60;77.40
12013;DHT22;6065;48.138;16.402;2024-03-25T14:43:33;13.60;78.20
12013;DHT22;6065;48.138;16.402;2024-03-25T14:45:59;13.60;77.80
12013;DHT22;6065;48.138;16.402;2024-03-25T14:48:25;13.60;78.20
12013;DHT22;6065;48.138;16.402;2024-03-25T14:50:50;13.60;78.30
12013;DHT22;6065;48.138;16.402;2024-03-25T14:53:16;13.60;77.30
12013;DHT22;6065;48.138;16.402;2024-03-25T14:55:42;13.60;77.60
12013;DHT22;6065;48.138;16.402;2024-03-25T14:58:10;13.60;78.30
12013;DHT22;6065;48.138;16.402;2024-03-25T15:00:37;13.50;78.80
12013;DHT22;6065;48.138;16.402;2024-03-25T15:03:03;13.50;79.00
12013;DHT22;6065;48.138;16.402;2024-03-25T15:05:29;13.50;78.30
12013;DHT22;6065;48.138;16.402;2024-03-25T15:07:55;13.50;78.40
12013;DHT22;6065;48.138;16.402;2024-03-25T15:10:20;13.50;78.10
12013;DHT22;6065;48.138;16.402;2024-03-25T15:12:46;13.50;78.30
12013;DHT22;6065;48.138;16.402;2024-03-25T15:15:12;13.50;78.50
12013;DHT22;6065;48.138;16.402;2024-03-25T15:17:39;13.50;78.90
12013;DHT22;6065;48.138;16.402;2024-03-25T15:20:05;13.50;77.80
12013;DHT22;6065;48.138;16.402;2024-03-25T15:22:32;13.50;77.90
12013;DHT22;6065;48.138;16.402;2024-03-25T15:24:57;13.50;78.90
12013;DHT22;6065;48.138;16.402;2024-03-25T15:27:23;13.50;78.70
12013;DHT22;6065;48.138;16.402;2024-03-25T15:29:49;13.50;77.40
12013;DHT22;6065;48.138;16.402;2024-03-25T15:32:15;13.50;77.30
12013;DHT22;6065;48.138;16.402;2024-03-25T15:34:42;13.50;77.50